createdAt,value
2019-04-30T00:00:03.583Z,27.43
2019-04-30T00:02:39.873Z,26.00
2019-04-30T00:05:09.943Z,25.87
2019-04-30T00:07:38.210Z,24.80
2019-04-30T00:10:07.845Z,24.70
2019-04-30T00:12:39.488Z,25.40
2019-04-30T00:15:10.884Z,24.83
2019-04-30T00:17:39.629Z,24.07
2019-04-30T00:20:09.325Z,27.47
2019-04-30T00:22:46.162Z,24.60
2019-04-30T00:25:09.666Z,24.60
2019-04-30T00:27:39.102Z,23.90
2019-04-30T00:30:09.071Z,23.90
2019-04-30T00:32:43.397Z,23.00
2019-04-30T00:35:11.855Z,22.93
2019-04-30T00:37:42.451Z,23.10
2019-04-30T00:40:11.850Z,23.07
2019-04-30T00:42:41.236Z,22.67
2019-04-30T00:45:12.072Z,21.50
2019-04-30T00:47:44.510Z,22.10
2019-04-30T00:50:14.852Z,22.60
2019-04-30T00:52:45.689Z,22.83
2019-04-30T00:55:15.239Z,21.80
2019-04-30T00:57:47.389Z,22.03
2019-04-30T01:00:25.079Z,21.60
2019-04-30T01:03:07.869Z,21.33
2019-04-30T01:05:35.335Z,23.13
2019-04-30T01:08:07.014Z,22.67
2019-04-30T01:10:36.283Z,22.97
2019-04-30T01:13:08.087Z,22.87
2019-04-30T01:15:38.963Z,24.13
2019-04-30T01:18:09.319Z,23.70
2019-04-30T01:20:40.619Z,23.73
2019-04-30T01:23:11.288Z,21.77
2019-04-30T01:25:43.268Z,22.13
2019-04-30T01:28:16.266Z,22.80
2019-04-30T01:30:43.468Z,23.67
2019-04-30T01:33:13.182Z,22.40
2019-04-30T01:35:42.569Z,22.27
2019-04-30T01:38:12.811Z,23.07
2019-04-30T01:40:47.493Z,22.73
2019-04-30T01:43:14.502Z,24.47
2019-04-30T01:45:43.870Z,23.27
2019-04-30T01:48:13.289Z,22.17
2019-04-30T01:50:42.672Z,21.17
2019-04-30T01:53:13.356Z,21.57
2019-04-30T01:56:01.786Z,22.30
2019-04-30T01:58:46.923Z,22.57
2019-04-30T02:01:21.007Z,22.13
2019-04-30T02:03:50.368Z,20.80
2019-04-30T02:06:19.827Z,22.50
2019-04-30T02:08:49.419Z,22.30
2019-04-30T02:11:19.087Z,21.30
2019-04-30T02:13:49.173Z,22.53
2019-04-30T02:16:21.017Z,21.37
2019-04-30T02:18:49.714Z,21.20
2019-04-30T02:21:19.509Z,21.07
2019-04-30T02:23:49.440Z,19.67
2019-04-30T02:26:18.886Z,19.50
2019-04-30T02:28:49.519Z,21.63
2019-04-30T02:31:22.369Z,20.97
2019-04-30T02:33:52.292Z,20.33
2019-04-30T02:36:30.727Z,20.00
2019-04-30T02:39:02.767Z,22.27
2019-04-30T02:41:31.536Z,22.73
2019-04-30T02:44:03.164Z,22.57
2019-04-30T02:46:32.848Z,20.37
2019-04-30T02:49:03.259Z,22.17
2019-04-30T02:51:35.115Z,21.33
2019-04-30T02:54:26.581Z,20.63
2019-04-30T02:57:05.571Z,21.30
2019-04-30T02:59:36.549Z,21.07
2019-04-30T03:02:05.942Z,21.30
2019-04-30T03:04:35.367Z,21.00
2019-04-30T03:07:04.946Z,20.53
2019-04-30T03:09:34.415Z,21.40
2019-04-30T03:12:03.932Z,21.23
2019-04-30T03:14:33.349Z,21.30
2019-04-30T03:17:11.233Z,21.17
2019-04-30T03:20:03.105Z,20.90
2019-04-30T03:22:30.709Z,19.37
2019-04-30T03:25:00.060Z,18.80
2019-04-30T03:27:30.185Z,16.83
2019-04-30T03:30:00.218Z,17.33
2019-04-30T03:32:31.606Z,17.30
2019-04-30T03:35:03.113Z,16.63
2019-04-30T03:37:33.039Z,15.07
2019-04-30T03:40:02.440Z,15.37
2019-04-30T03:42:31.766Z,15.30
2019-04-30T03:45:01.186Z,14.47
2019-04-30T03:47:30.525Z,14.47
2019-04-30T03:50:00.337Z,15.47
2019-04-30T03:52:29.662Z,15.20
2019-04-30T03:55:02.776Z,15.87
2019-04-30T03:57:30.728Z,14.90
2019-04-30T04:00:00.157Z,14.53
2019-04-30T04:02:50.189Z,16.43
2019-04-30T04:05:31.602Z,16.07
2019-04-30T04:08:19.565Z,14.83
2019-04-30T04:10:53.200Z,16.03
2019-04-30T04:13:22.769Z,16.73
2019-04-30T04:15:52.207Z,14.30
2019-04-30T04:18:21.660Z,16.20
2019-04-30T04:21:07.038Z,15.17
2019-04-30T04:23:22.128Z,13.67
2019-04-30T04:25:51.556Z,14.73
2019-04-30T04:28:20.842Z,14.17
2019-04-30T04:30:50.877Z,14.53
2019-04-30T04:33:20.264Z,14.50
2019-04-30T04:35:50.081Z,14.60
2019-04-30T04:38:20.480Z,14.30
2019-04-30T04:40:50.375Z,14.43
2019-04-30T04:43:20.292Z,14.43
2019-04-30T04:45:50.220Z,13.47
2019-04-30T04:48:23.034Z,15.47
2019-04-30T04:50:50.708Z,15.93
2019-04-30T04:53:20.230Z,15.57
2019-04-30T04:55:50.089Z,15.23
2019-04-30T04:58:21.596Z,16.37
2019-04-30T05:00:50.701Z,16.67
2019-04-30T05:03:34.775Z,16.17
2019-04-30T05:06:04.143Z,16.07
2019-04-30T05:08:33.629Z,16.33
2019-04-30T05:11:03.456Z,16.80
2019-04-30T05:13:34.774Z,16.13
2019-04-30T05:16:04.291Z,17.27
2019-04-30T05:18:33.676Z,17.10
2019-04-30T05:21:03.130Z,16.53
2019-04-30T05:23:32.401Z,18.13
2019-04-30T05:26:01.859Z,18.33
2019-04-30T05:28:31.227Z,18.70
2019-04-30T05:31:00.676Z,18.73
2019-04-30T05:33:29.992Z,20.93
2019-04-30T05:35:59.532Z,21.70
2019-04-30T05:38:31.224Z,24.87
2019-04-30T05:41:00.107Z,22.43
2019-04-30T05:43:29.446Z,19.63
2019-04-30T05:45:58.875Z,19.83
2019-04-30T05:48:28.766Z,20.73
2019-04-30T05:50:59.160Z,20.17
2019-04-30T05:53:28.856Z,23.60
2019-04-30T05:55:59.330Z,22.80
2019-04-30T05:58:29.979Z,24.03
2019-04-30T06:00:59.806Z,22.70
2019-04-30T06:03:32.978Z,21.27
2019-04-30T06:06:00.208Z,20.83
2019-04-30T06:08:36.904Z,20.47
2019-04-30T06:11:16.002Z,20.60
2019-04-30T06:14:03.061Z,21.10
2019-04-30T06:16:32.463Z,21.03
2019-04-30T06:19:02.006Z,20.83
2019-04-30T06:21:31.416Z,19.50
2019-04-30T06:24:00.867Z,20.77
2019-04-30T06:26:30.322Z,18.20
2019-04-30T06:29:00.156Z,19.23
2019-04-30T06:31:34.673Z,18.33
2019-04-30T06:34:00.760Z,22.57
2019-04-30T06:36:30.464Z,18.63
2019-04-30T06:38:59.709Z,17.77
2019-04-30T06:41:29.644Z,19.73
2019-04-30T06:43:59.431Z,19.83
2019-04-30T06:46:28.731Z,20.57
2019-04-30T06:49:00.082Z,17.93
2019-04-30T06:51:30.771Z,18.37
2019-04-30T06:54:00.151Z,18.37
2019-04-30T06:56:29.513Z,17.23
2019-04-30T06:58:59.085Z,17.40
2019-04-30T07:01:29.052Z,19.10
2019-04-30T07:04:00.783Z,20.70
2019-04-30T07:06:32.795Z,24.33
2019-04-30T07:09:19.619Z,17.10
2019-04-30T07:11:59.271Z,16.20
2019-04-30T07:14:29.241Z,15.63
2019-04-30T07:16:59.431Z,15.37
2019-04-30T07:19:38.153Z,15.07
2019-04-30T07:22:01.542Z,13.97
2019-04-30T07:24:33.192Z,13.67
2019-04-30T07:27:02.880Z,12.73
2019-04-30T07:29:32.746Z,13.27
2019-04-30T07:32:03.555Z,12.93
2019-04-30T07:34:36.901Z,13.57
2019-04-30T07:37:14.503Z,12.37
2019-04-30T07:39:34.911Z,12.03
2019-04-30T07:42:04.339Z,11.83
2019-04-30T07:44:36.584Z,12.03
2019-04-30T07:47:04.525Z,13.10
2019-04-30T07:49:47.009Z,11.73
2019-04-30T07:52:05.601Z,11.63
2019-04-30T07:54:35.121Z,10.80
2019-04-30T07:57:04.431Z,11.60
2019-04-30T07:59:33.678Z,11.60
2019-04-30T08:02:10.018Z,11.20
2019-04-30T08:04:51.412Z,11.03
2019-04-30T08:07:20.820Z,10.23
2019-04-30T08:09:50.153Z,10.90
2019-04-30T08:12:28.171Z,10.67
2019-04-30T08:14:50.545Z,9.07
2019-04-30T08:17:19.856Z,9.73
2019-04-30T08:19:49.152Z,9.87
2019-04-30T08:22:19.653Z,10.87
2019-04-30T08:24:49.272Z,10.73
2019-04-30T08:27:19.670Z,9.70
2019-04-30T08:29:50.007Z,9.90
2019-04-30T08:32:19.469Z,9.27
2019-04-30T08:34:50.093Z,10.53
2019-04-30T08:37:20.241Z,10.70
2019-04-30T08:39:49.867Z,12.40
2019-04-30T08:42:30.932Z,11.10
2019-04-30T08:44:50.429Z,11.37
2019-04-30T08:47:21.220Z,13.57
2019-04-30T08:49:50.852Z,11.53
2019-04-30T08:52:20.499Z,11.00
2019-04-30T08:54:49.929Z,11.63
2019-04-30T08:57:19.492Z,11.17
2019-04-30T08:59:49.484Z,11.97
2019-04-30T09:02:19.721Z,11.83
2019-04-30T09:04:52.477Z,12.23
2019-04-30T09:07:21.809Z,12.77
2019-04-30T09:09:51.157Z,14.13
2019-04-30T09:12:20.491Z,11.83
2019-04-30T09:14:49.764Z,11.47
2019-04-30T09:17:19.963Z,11.83
2019-04-30T09:19:49.446Z,11.60
2019-04-30T09:22:19.470Z,13.67
2019-04-30T09:24:49.718Z,10.70
2019-04-30T09:27:19.743Z,10.80
2019-04-30T09:29:49.366Z,11.33
2019-04-30T09:32:19.408Z,10.93
2019-04-30T09:34:48.965Z,27.50
2019-04-30T09:37:18.828Z,13.63
2019-04-30T09:39:49.416Z,10.23
2019-04-30T09:42:20.359Z,10.00
2019-04-30T09:44:49.853Z,11.50
2019-04-30T09:47:20.112Z,12.07
2019-04-30T09:49:49.780Z,10.47
2019-04-30T09:52:19.933Z,11.47
2019-04-30T09:54:50.399Z,10.67
2019-04-30T09:57:20.301Z,11.70
2019-04-30T09:59:49.732Z,10.87
2019-04-30T10:02:19.346Z,11.33
2019-04-30T10:04:49.203Z,11.73
2019-04-30T10:07:19.556Z,12.33
2019-04-30T10:09:50.901Z,12.53
2019-04-30T10:12:19.992Z,12.27
2019-04-30T10:14:49.657Z,12.27
2019-04-30T10:17:38.114Z,12.67
2019-04-30T10:20:10.973Z,13.30
2019-04-30T10:22:40.355Z,13.87
2019-04-30T10:25:10.261Z,18.80
2019-04-30T10:27:39.641Z,15.37
2019-04-30T10:30:11.022Z,17.37
2019-04-30T10:32:40.386Z,17.60
2019-04-30T10:35:09.809Z,18.17
2019-04-30T10:37:39.476Z,18.47
2019-04-30T10:40:10.350Z,21.90
2019-04-30T10:42:39.834Z,19.53
2019-04-30T10:45:09.954Z,20.03
2019-04-30T10:47:39.503Z,18.93
2019-04-30T10:50:09.914Z,18.27
2019-04-30T10:52:39.589Z,19.60
2019-04-30T10:55:09.374Z,22.87
2019-04-30T10:57:39.645Z,21.00
2019-04-30T11:00:12.937Z,21.00
2019-04-30T11:02:42.332Z,22.53
2019-04-30T11:05:12.353Z,23.13
2019-04-30T11:07:41.840Z,21.77
2019-04-30T11:10:11.360Z,23.37
2019-04-30T11:12:40.728Z,23.17
2019-04-30T11:15:10.831Z,30.47
2019-04-30T11:17:40.343Z,28.03
2019-04-30T11:20:10.455Z,25.33
2019-04-30T11:22:41.341Z,24.57
2019-04-30T11:25:11.211Z,23.00
2019-04-30T11:27:41.686Z,24.67
2019-04-30T11:30:20.715Z,20.33
2019-04-30T11:32:43.219Z,17.33
2019-04-30T11:35:13.691Z,19.17
2019-04-30T11:37:43.018Z,18.67
2019-04-30T11:40:13.162Z,18.53
2019-04-30T11:42:42.569Z,18.57
2019-04-30T11:45:14.123Z,18.07
2019-04-30T11:47:53.000Z,20.97
2019-04-30T11:50:15.300Z,19.00
2019-04-30T11:52:44.722Z,19.00
2019-04-30T11:55:14.985Z,18.83
2019-04-30T11:57:44.278Z,20.00
2019-04-30T12:00:20.666Z,21.03
2019-04-30T12:02:52.888Z,21.97
2019-04-30T12:05:21.191Z,20.33
2019-04-30T12:08:09.549Z,20.63
2019-04-30T12:10:58.182Z,18.23
2019-04-30T12:13:32.419Z,16.43
2019-04-30T12:16:02.427Z,21.83
2019-04-30T12:18:31.828Z,20.70
2019-04-30T12:21:01.261Z,16.77
2019-04-30T12:23:30.650Z,18.60
2019-04-30T12:26:02.697Z,21.67
2019-04-30T12:28:31.030Z,19.93
2019-04-30T12:31:00.309Z,19.30
2019-04-30T12:33:29.708Z,20.03
2019-04-30T12:35:59.642Z,19.17
2019-04-30T12:38:29.905Z,22.33
2019-04-30T12:40:59.346Z,21.80
2019-04-30T12:43:29.321Z,21.00
2019-04-30T12:46:03.508Z,19.30
2019-04-30T12:48:39.693Z,19.20
2019-04-30T12:51:19.307Z,18.90
2019-04-30T12:53:55.572Z,17.50
2019-04-30T12:56:31.014Z,19.87
2019-04-30T12:59:00.421Z,18.03
2019-04-30T13:01:33.901Z,20.10
2019-04-30T13:04:01.499Z,18.00
2019-04-30T13:06:31.421Z,18.70
2019-04-30T13:09:01.623Z,21.93
2019-04-30T13:11:32.169Z,20.97
2019-04-30T13:14:02.260Z,22.13
2019-04-30T13:16:31.935Z,23.47
2019-04-30T13:19:01.324Z,23.03
2019-04-30T13:21:30.734Z,23.43
2019-04-30T13:24:00.124Z,24.43
2019-04-30T13:26:29.518Z,23.17
2019-04-30T13:29:03.559Z,24.70
2019-04-30T13:31:33.153Z,21.47
2019-04-30T13:34:26.278Z,26.30
2019-04-30T13:36:55.571Z,25.00
2019-04-30T13:39:29.887Z,27.33
2019-04-30T13:42:17.950Z,25.20
2019-04-30T13:44:45.589Z,22.50
2019-04-30T13:47:14.969Z,26.97
2019-04-30T13:49:44.307Z,23.03
2019-04-30T13:52:13.584Z,25.10
2019-04-30T13:54:43.042Z,22.23
2019-04-30T13:57:12.459Z,24.37
2019-04-30T13:59:42.003Z,20.73
2019-04-30T14:02:11.705Z,21.83
2019-04-30T14:04:58.827Z,20.73
2019-04-30T14:07:45.668Z,21.33
2019-04-30T14:10:15.324Z,25.33
2019-04-30T14:12:50.661Z,23.97
2019-04-30T14:15:20.268Z,23.87
2019-04-30T14:17:49.882Z,22.87
2019-04-30T14:20:19.443Z,23.63
2019-04-30T14:22:48.871Z,23.43
2019-04-30T14:25:18.602Z,23.83
2019-04-30T14:27:51.774Z,23.50
2019-04-30T14:30:19.302Z,23.40
2019-04-30T14:32:50.659Z,22.73
2019-04-30T14:35:20.050Z,23.27
2019-04-30T14:37:49.702Z,24.27
2019-04-30T14:40:20.296Z,24.67
2019-04-30T14:42:59.875Z,24.43
2019-04-30T14:45:36.094Z,25.97
2019-04-30T14:48:15.264Z,25.27
2019-04-30T14:50:44.885Z,23.90
2019-04-30T14:53:36.031Z,21.73
2019-04-30T14:56:23.788Z,21.23
2019-04-30T14:59:12.119Z,23.60
2019-04-30T15:01:59.141Z,20.20
2019-04-30T15:04:29.049Z,20.43
2019-04-30T15:06:58.867Z,20.23
2019-04-30T15:09:28.242Z,20.80
2019-04-30T15:11:58.632Z,23.27
2019-04-30T15:14:28.147Z,24.20
2019-04-30T15:16:57.602Z,22.53
2019-04-30T15:19:26.975Z,22.57
2019-04-30T15:21:56.376Z,20.77
2019-04-30T15:24:29.907Z,18.73
2019-04-30T15:26:59.210Z,20.27
2019-04-30T15:29:29.135Z,21.73
2019-04-30T15:31:59.233Z,23.17
2019-04-30T15:34:29.395Z,22.33
2019-04-30T15:36:59.561Z,21.93
2019-04-30T15:39:48.871Z,22.00
2019-04-30T15:42:19.970Z,22.77
2019-04-30T15:44:49.760Z,24.40
2019-04-30T15:47:19.600Z,24.33
2019-04-30T15:49:49.003Z,22.87
2019-04-30T15:52:18.913Z,22.33
2019-04-30T15:54:49.079Z,24.03
2019-04-30T15:57:19.972Z,24.13
2019-04-30T15:59:49.910Z,25.23
2019-04-30T16:02:23.900Z,24.00
2019-04-30T16:05:20.995Z,22.40
2019-04-30T16:07:58.728Z,20.73
2019-04-30T16:10:56.264Z,21.83
2019-04-30T16:13:30.535Z,21.03
2019-04-30T16:15:59.970Z,20.10
2019-04-30T16:18:35.874Z,20.83
2019-04-30T16:21:05.184Z,20.30
2019-04-30T16:23:34.594Z,20.20
2019-04-30T16:26:03.887Z,20.93
2019-04-30T16:28:33.158Z,21.60
2019-04-30T16:31:02.563Z,19.77
2019-04-30T16:33:31.915Z,18.20
2019-04-30T16:36:01.238Z,20.50
2019-04-30T16:38:30.691Z,20.57
2019-04-30T16:41:00.034Z,20.90
2019-04-30T16:43:29.883Z,18.53
2019-04-30T16:45:59.250Z,18.93
2019-04-30T16:48:29.102Z,18.57
2019-04-30T16:50:58.726Z,17.93
2019-04-30T16:53:28.006Z,18.27
2019-04-30T16:55:58.616Z,18.73
2019-04-30T16:58:29.549Z,18.00
2019-04-30T17:00:59.383Z,17.37
2019-04-30T17:03:35.694Z,18.10
2019-04-30T17:06:14.026Z,17.87
2019-04-30T17:08:52.185Z,17.27
2019-04-30T17:11:39.168Z,17.10
2019-04-30T17:14:11.612Z,19.50
2019-04-30T17:16:41.022Z,16.83
2019-04-30T17:19:10.295Z,19.17
2019-04-30T17:21:39.669Z,18.73
2019-04-30T17:24:08.945Z,18.53
2019-04-30T17:26:39.242Z,19.10
2019-04-30T17:29:09.632Z,18.47
2019-04-30T17:31:39.051Z,18.60
2019-04-30T17:34:09.294Z,18.30
2019-04-30T17:36:39.661Z,18.23
2019-04-30T17:39:12.553Z,17.97
2019-04-30T17:41:41.894Z,18.37
2019-04-30T17:44:11.206Z,17.50
2019-04-30T17:46:40.549Z,17.63
2019-04-30T17:49:10.161Z,17.37
2019-04-30T17:51:39.407Z,18.57
2019-04-30T17:54:15.513Z,17.43
2019-04-30T17:56:46.025Z,17.93
2019-04-30T17:59:15.363Z,17.87
2019-04-30T18:01:49.933Z,18.80
2019-04-30T18:04:22.009Z,18.40
2019-04-30T18:06:50.612Z,18.23
2019-04-30T18:09:21.127Z,19.50
2019-04-30T18:11:50.524Z,19.07
2019-04-30T18:14:20.147Z,19.80
2019-04-30T18:16:49.467Z,19.47
2019-04-30T18:19:25.960Z,20.80
2019-04-30T18:22:01.962Z,20.83
2019-04-30T18:24:43.674Z,22.80
2019-04-30T18:27:24.904Z,21.43
2019-04-30T18:29:54.339Z,21.93
2019-04-30T18:32:25.429Z,23.97
2019-04-30T18:34:54.862Z,23.87
2019-04-30T18:37:24.248Z,21.83
2019-04-30T18:39:53.673Z,22.57
2019-04-30T18:42:23.055Z,22.33
2019-04-30T18:44:52.435Z,21.43
2019-04-30T18:47:21.799Z,20.67
2019-04-30T18:49:51.140Z,22.50
2019-04-30T18:52:20.536Z,21.83
2019-04-30T18:54:49.843Z,21.97
2019-04-30T18:57:19.243Z,21.93
2019-04-30T18:59:48.591Z,21.97
2019-04-30T19:02:18.213Z,20.43
2019-04-30T19:04:49.488Z,23.07
2019-04-30T19:07:30.070Z,22.27
2019-04-30T19:10:09.063Z,22.93
2019-04-30T19:12:48.924Z,22.33
2019-04-30T19:16:11.332Z,22.73
2019-04-30T19:18:37.539Z,21.87
2019-04-30T19:21:08.935Z,22.90
2019-04-30T19:23:39.050Z,23.23
2019-04-30T19:26:08.506Z,22.50
2019-04-30T19:28:38.698Z,22.23
2019-04-30T19:31:09.126Z,21.67
2019-04-30T19:33:39.356Z,23.00
2019-04-30T19:36:09.854Z,21.87
2019-04-30T19:38:39.134Z,23.37
2019-04-30T19:41:10.471Z,22.97
2019-04-30T19:43:40.157Z,22.30
2019-04-30T19:46:09.579Z,22.20
2019-04-30T19:48:38.996Z,22.93
2019-04-30T19:51:08.838Z,23.23
2019-04-30T19:53:39.516Z,23.93
2019-04-30T19:56:08.973Z,23.20
2019-04-30T19:58:54.409Z,23.43
2019-04-30T20:01:09.556Z,23.57
2019-04-30T20:03:40.747Z,21.77
2019-04-30T20:06:10.459Z,24.40
2019-04-30T20:08:39.769Z,24.20
2019-04-30T20:11:09.047Z,25.70
2019-04-30T20:13:40.309Z,23.93
2019-04-30T20:16:09.721Z,22.43
2019-04-30T20:18:39.156Z,23.77
2019-04-30T20:21:12.367Z,23.67
2019-04-30T20:23:41.630Z,25.80
2019-04-30T20:26:10.989Z,23.93
2019-04-30T20:28:42.508Z,23.20
2019-04-30T20:31:11.697Z,24.17
2019-04-30T20:33:41.100Z,23.27
2019-04-30T20:36:10.588Z,25.40
2019-04-30T20:38:44.664Z,25.70
2019-04-30T20:41:14.738Z,25.73
2019-04-30T20:43:44.167Z,24.77
2019-04-30T20:46:13.531Z,25.07
2019-04-30T20:48:42.889Z,24.93
2019-04-30T20:51:12.226Z,24.20
2019-04-30T20:53:41.555Z,23.37
2019-04-30T20:56:10.896Z,23.43
2019-04-30T20:58:54.594Z,24.13
2019-04-30T21:01:11.190Z,24.20
2019-04-30T21:03:40.563Z,22.47
2019-04-30T21:06:10.048Z,25.53
2019-04-30T21:08:39.318Z,25.63
2019-04-30T21:11:09.446Z,25.83
2019-04-30T21:13:39.209Z,25.27
2019-04-30T21:16:08.570Z,26.43
2019-04-30T21:18:39.166Z,28.23
2019-04-30T21:21:08.661Z,25.87
2019-04-30T21:23:39.219Z,28.53
2019-04-30T21:26:08.647Z,28.17
2019-04-30T21:28:39.299Z,28.70
2019-04-30T21:31:26.207Z,27.43
2019-04-30T21:34:00.586Z,27.10
2019-04-30T21:36:29.967Z,29.13
2019-04-30T21:38:59.330Z,29.57
2019-04-30T21:41:29.668Z,27.83
2019-04-30T21:43:59.126Z,30.60
2019-04-30T21:46:29.279Z,31.17
2019-04-30T21:48:58.849Z,28.40
2019-04-30T21:51:28.119Z,27.90
2019-04-30T21:53:57.872Z,27.77
2019-04-30T21:56:27.206Z,28.80
2019-04-30T21:58:56.510Z,28.50
2019-04-30T22:01:26.493Z,26.70
2019-04-30T22:03:55.977Z,29.57
2019-04-30T22:06:25.234Z,28.20
2019-04-30T22:08:54.569Z,28.33
2019-04-30T22:11:24.052Z,28.03
2019-04-30T22:13:53.309Z,28.20
2019-04-30T22:16:22.675Z,27.87
2019-04-30T22:18:51.982Z,29.10
2019-04-30T22:21:21.261Z,26.70
2019-04-30T22:23:50.520Z,27.67
2019-04-30T22:26:19.873Z,27.90
2019-04-30T22:28:49.569Z,27.37
2019-04-30T22:31:19.774Z,27.13
2019-04-30T22:33:49.139Z,27.77
2019-04-30T22:36:32.113Z,27.27
2019-04-30T22:39:30.019Z,28.70
2019-04-30T22:42:39.860Z,27.43
2019-04-30T22:45:24.549Z,27.93
2019-04-30T22:47:53.824Z,26.87
2019-04-30T22:50:23.153Z,27.23
2019-04-30T22:52:52.462Z,28.03
2019-04-30T22:55:21.725Z,27.77
2019-04-30T22:57:50.924Z,26.73
2019-04-30T23:00:31.310Z,27.20
2019-04-30T23:03:03.718Z,27.23
2019-04-30T23:05:32.969Z,26.90
2019-04-30T23:08:02.247Z,28.10
2019-04-30T23:10:31.667Z,27.40
2019-04-30T23:13:00.980Z,27.43
2019-04-30T23:15:30.303Z,27.53
2019-04-30T23:17:59.567Z,28.83
2019-04-30T23:20:28.837Z,28.47
2019-04-30T23:22:58.010Z,26.67
2019-04-30T23:25:27.265Z,28.27
2019-04-30T23:27:56.525Z,28.37
2019-04-30T23:30:25.827Z,28.07
2019-04-30T23:32:55.088Z,29.93
2019-04-30T23:35:24.405Z,28.47
2019-04-30T23:37:53.659Z,27.17
2019-04-30T23:40:27.970Z,27.83
2019-04-30T23:42:57.251Z,28.30
2019-04-30T23:45:26.569Z,28.77
2019-04-30T23:47:56.030Z,28.17
2019-04-30T23:50:25.296Z,29.47
2019-04-30T23:52:54.464Z,28.50
2019-04-30T23:55:23.794Z,29.77
2019-04-30T23:57:52.962Z,29.57
